Nolensville, Tennessee
Current Conditions -  °F | °C
As of 1:53 AM on Wednesday 22 Oct 2014 (Local Time) from KBNA Reporting Station
Clear Clear  
Wind Chill: 50°   Ceiling: Unl
Heat Index: 50°   Visibility: 10mi
Dew Point: 43°   Wind: 3mph
Humidity: 77%   Direction: 360°N
Pressure: 30.15"   Gusts: NA
Location:  35.95°N, 86.67°W
Report Text: KBNA 220653Z 36003KT 10SM CLR 10/06 A3015 RMK AO2 SLP207 T01000061
Loading
Personal Weather Stations






























Interactive Weather Map
Tropical Storm Tracking
New forecast layout! Learn more

10-Day Weather Forecast

Advertisements
Track Severe Weather on mobile